sensor_id;sensor_type;location;lat;lon;timestamp;pressure;altitude;pressure_sealevel;temperature;humidity
54556;BME280;57291;37.520;15.106;2023-04-15T00:01:48;101009.13;;;12.89;49.89
54556;BME280;57291;37.520;15.106;2023-04-15T00:04:15;101003.47;;;12.72;51.11
54556;BME280;57291;37.520;15.106;2023-04-15T00:06:49;100995.78;;;12.60;51.02
54556;BME280;57291;37.520;15.106;2023-04-15T00:09:18;101001.75;;;12.48;51.04
54556;BME280;57291;37.520;15.106;2023-04-15T00:11:45;100997.19;;;12.43;50.76
54556;BME280;57291;37.520;15.106;2023-04-15T00:14:12;100996.78;;;12.36;50.21
54556;BME280;57291;37.520;15.106;2023-04-15T00:16:39;100995.44;;;12.34;50.08
54556;BME280;57291;37.520;15.106;2023-04-15T00:19:07;100984.06;;;12.32;49.98
54556;BME280;57291;37.520;15.106;2023-04-15T00:21:34;100986.78;;;12.32;49.95
54556;BME280;57291;37.520;15.106;2023-04-15T00:24:01;100990.53;;;12.36;49.85
54556;BME280;57291;37.520;15.106;2023-04-15T00:26:29;100992.97;;;12.37;49.76
54556;BME280;57291;37.520;15.106;2023-04-15T00:28:56;100986.28;;;12.43;49.33
54556;BME280;57291;37.520;15.106;2023-04-15T00:31:24;100974.38;;;12.39;49.33
54556;BME280;57291;37.520;15.106;2023-04-15T00:33:51;100976.50;;;12.42;49.71
54556;BME280;57291;37.520;15.106;2023-04-15T00:36:20;100973.03;;;12.37;49.70
54556;BME280;57291;37.520;15.106;2023-04-15T00:38:49;100971.03;;;12.29;49.83
54556;BME280;57291;37.520;15.106;2023-04-15T00:41:17;100964.38;;;12.21;50.35
54556;BME280;57291;37.520;15.106;2023-04-15T00:43:45;100961.50;;;12.12;50.51
54556;BME280;57291;37.520;15.106;2023-04-15T00:46:15;100966.44;;;12.10;50.96
54556;BME280;57291;37.520;15.106;2023-04-15T00:48:43;100959.97;;;12.06;50.92
54556;BME280;57291;37.520;15.106;2023-04-15T00:51:14;100955.13;;;12.03;51.15
54556;BME280;57291;37.520;15.106;2023-04-15T00:53:41;100956.84;;;11.99;51.11
54556;BME280;57291;37.520;15.106;2023-04-15T00:56:09;100953.91;;;11.95;50.94
54556;BME280;57291;37.520;15.106;2023-04-15T00:58:36;100957.13;;;11.97;51.34
54556;BME280;57291;37.520;15.106;2023-04-15T01:01:04;100962.69;;;11.92;51.88
54556;BME280;57291;37.520;15.106;2023-04-15T01:03:31;100955.09;;;11.89;52.12
54556;BME280;57291;37.520;15.106;2023-04-15T01:05:59;100952.22;;;11.81;52.17
54556;BME280;57291;37.520;15.106;2023-04-15T01:08:30;100935.59;;;11.82;51.88
54556;BME280;57291;37.520;15.106;2023-04-15T01:10:59;100928.50;;;12.00;50.18
54556;BME280;57291;37.520;15.106;2023-04-15T01:13:28;100927.44;;;12.29;48.71
54556;BME280;57291;37.520;15.106;2023-04-15T01:15:56;100923.31;;;12.45;47.86
54556;BME280;57291;37.520;15.106;2023-04-15T01:18:24;100923.81;;;12.61;47.02
54556;BME280;57291;37.520;15.106;2023-04-15T01:20:51;100928.25;;;12.71;46.28
54556;BME280;57291;37.520;15.106;2023-04-15T01:23:23;100922.06;;;12.79;45.92
54556;BME280;57291;37.520;15.106;2023-04-15T01:25:50;100919.13;;;12.89;45.40
54556;BME280;57291;37.520;15.106;2023-04-15T01:28:19;100925.28;;;12.95;45.03
54556;BME280;57291;37.520;15.106;2023-04-15T01:30:46;100931.72;;;12.99;44.78
54556;BME280;57291;37.520;15.106;2023-04-15T01:33:14;100923.06;;;12.97;44.53
54556;BME280;57291;37.520;15.106;2023-04-15T01:35:41;100923.34;;;12.95;44.36
54556;BME280;57291;37.520;15.106;2023-04-15T01:38:10;100922.03;;;12.93;44.25
54556;BME280;57291;37.520;15.106;2023-04-15T01:40:38;100927.81;;;12.91;44.27
54556;BME280;57291;37.520;15.106;2023-04-15T01:43:06;100928.63;;;12.91;44.00
54556;BME280;57291;37.520;15.106;2023-04-15T01:45:34;100923.66;;;12.94;44.25
54556;BME280;57291;37.520;15.106;2023-04-15T01:48:03;100930.72;;;12.95;43.84
54556;BME280;57291;37.520;15.106;2023-04-15T01:50:30;100924.66;;;12.98;43.88
54556;BME280;57291;37.520;15.106;2023-04-15T01:52:57;100927.59;;;13.01;44.13
54556;BME280;57291;37.520;15.106;2023-04-15T01:55:24;100931.13;;;13.02;44.09
54556;BME280;57291;37.520;15.106;2023-04-15T01:57:51;100924.06;;;13.01;44.35
54556;BME280;57291;37.520;15.106;2023-04-15T02:00:20;100931.13;;;13.02;44.23
54556;BME280;57291;37.520;15.106;2023-04-15T02:02:48;100920.00;;;12.98;44.91
54556;BME280;57291;37.520;15.106;2023-04-15T02:05:15;100909.91;;;12.99;45.27
54556;BME280;57291;37.520;15.106;2023-04-15T02:07:46;100908.50;;;13.01;45.17
54556;BME280;57291;37.520;15.106;2023-04-15T02:10:14;100907.88;;;13.04;45.15
54556;BME280;57291;37.520;15.106;2023-04-15T02:12:42;100915.13;;;13.09;45.18
54556;BME280;57291;37.520;15.106;2023-04-15T02:15:10;100906.03;;;13.13;45.72
54556;BME280;57291;37.520;15.106;2023-04-15T02:17:37;100907.53;;;13.20;45.91
54556;BME280;57291;37.520;15.106;2023-04-15T02:20:07;100908.63;;;13.19;46.52
54556;BME280;57291;37.520;15.106;2023-04-15T02:22:37;100912.38;;;13.23;46.79
54556;BME280;57291;37.520;15.106;2023-04-15T02:25:04;100913.69;;;13.25;46.96
54556;BME280;57291;37.520;15.106;2023-04-15T02:27:32;100913.41;;;13.27;46.98
54556;BME280;57291;37.520;15.106;2023-04-15T02:29:59;100914.22;;;13.27;47.17
54556;BME280;57291;37.520;15.106;2023-04-15T02:32:26;100919.84;;;13.31;47.38
54556;BME280;57291;37.520;15.106;2023-04-15T02:34:54;100922.06;;;13.29;47.52
54556;BME280;57291;37.520;15.106;2023-04-15T02:37:22;100926.53;;;13.25;47.44
54556;BME280;57291;37.520;15.106;2023-04-15T02:39:50;100938.84;;;13.22;47.82
54556;BME280;57291;37.520;15.106;2023-04-15T02:42:18;100932.59;;;13.22;48.11
54556;BME280;57291;37.520;15.106;2023-04-15T02:44:48;100939.97;;;13.21;48.40
54556;BME280;57291;37.520;15.106;2023-04-15T02:47:16;100955.03;;;13.19;49.26
54556;BME280;57291;37.520;15.106;2023-04-15T02:49:43;100946.34;;;13.17;48.05
54556;BME280;57291;37.520;15.106;2023-04-15T02:52:11;100959.16;;;13.16;46.82
54556;BME280;57291;37.520;15.106;2023-04-15T02:54:38;100941.81;;;13.12;46.30
54556;BME280;57291;37.520;15.106;2023-04-15T02:57:05;100943.22;;;13.09;45.53
54556;BME280;57291;37.520;15.106;2023-04-15T02:59:32;100956.84;;;13.09;45.42
54556;BME280;57291;37.520;15.106;2023-04-15T03:02:00;100945.75;;;13.06;45.37
54556;BME280;57291;37.520;15.106;2023-04-15T03:04:27;100939.50;;;13.05;45.21
54556;BME280;57291;37.520;15.106;2023-04-15T03:06:55;100935.25;;;12.99;45.21
54556;BME280;57291;37.520;15.106;2023-04-15T03:09:24;100941.84;;;12.98;44.96
54556;BME280;57291;37.520;15.106;2023-04-15T03:11:52;100941.03;;;12.98;45.14
54556;BME280;57291;37.520;15.106;2023-04-15T03:14:21;100951.34;;;13.01;45.05
54556;BME280;57291;37.520;15.106;2023-04-15T03:16:48;100956.00;;;13.00;44.79
54556;BME280;57291;37.520;15.106;2023-04-15T03:19:17;100949.50;;;12.96;44.95
54556;BME280;57291;37.520;15.106;2023-04-15T03:21:44;100952.84;;;12.93;45.06
54556;BME280;57291;37.520;15.106;2023-04-15T03:24:12;100952.97;;;12.88;45.53
54556;BME280;57291;37.520;15.106;2023-04-15T03:26:39;100944.88;;;12.83;46.03
54556;BME280;57291;37.520;15.106;2023-04-15T03:29:13;100949.34;;;12.79;46.29
54556;BME280;57291;37.520;15.106;2023-04-15T03:31:41;100945.28;;;12.76;46.11
54556;BME280;57291;37.520;15.106;2023-04-15T03:34:08;100940.44;;;12.73;46.59
54556;BME280;57291;37.520;15.106;2023-04-15T03:36:35;100954.72;;;12.70;46.61
54556;BME280;57291;37.520;15.106;2023-04-15T03:39:03;100953.47;;;12.62;47.19
54556;BME280;57291;37.520;15.106;2023-04-15T03:41:30;100948.34;;;12.61;47.27
54556;BME280;57291;37.520;15.106;2023-04-15T03:43:58;100954.28;;;12.63;47.14
54556;BME280;57291;37.520;15.106;2023-04-15T03:46:26;100954.81;;;12.65;47.06
54556;BME280;57291;37.520;15.106;2023-04-15T03:48:53;100962.06;;;12.70;46.89
54556;BME280;57291;37.520;15.106;2023-04-15T03:51:20;100951.06;;;12.75;46.74
54556;BME280;57291;37.520;15.106;2023-04-15T03:53:47;100942.66;;;12.85;45.83
54556;BME280;57291;37.520;15.106;2023-04-15T03:56:15;100948.69;;;12.96;45.34
54556;BME280;57291;37.520;15.106;2023-04-15T03:58:42;100945.28;;;13.04;45.44
54556;BME280;57291;37.520;15.106;2023-04-15T04:01:09;100947.88;;;13.09;44.99
54556;BME280;57291;37.520;15.106;2023-04-15T04:03:36;100944.91;;;13.19;44.87
54556;BME280;57291;37.520;15.106;2023-04-15T04:06:03;100947.88;;;13.23;44.39
54556;BME280;57291;37.520;15.106;2023-04-15T04:08:31;100947.47;;;13.29;44.07
54556;BME280;57291;37.520;15.106;2023-04-15T04:10:58;100942.50;;;13.31;44.06
54556;BME280;57291;37.520;15.106;2023-04-15T04:13:25;100946.22;;;13.35;43.54
54556;BME280;57291;37.520;15.106;2023-04-15T04:15:52;100937.72;;;13.37;43.70
54556;BME280;57291;37.520;15.106;2023-04-15T04:18:19;100939.03;;;13.40;43.59
54556;BME280;57291;37.520;15.106;2023-04-15T04:20:46;100940.13;;;13.38;43.56
54556;BME280;57291;37.520;15.106;2023-04-15T04:23:13;100937.72;;;13.37;43.61
54556;BME280;57291;37.520;15.106;2023-04-15T04:25:41;100936.75;;;13.33;43.95
54556;BME280;57291;37.520;15.106;2023-04-15T04:28:08;100943.63;;;13.30;44.22
54556;BME280;57291;37.520;15.106;2023-04-15T04:30:35;100937.97;;;13.27;44.26
54556;BME280;57291;37.520;15.106;2023-04-15T04:33:02;100938.25;;;13.25;44.28
54556;BME280;57291;37.520;15.106;2023-04-15T04:35:29;100941.56;;;13.22;44.49
54556;BME280;57291;37.520;15.106;2023-04-15T04:38:00;100944.09;;;13.19;44.40
54556;BME280;57291;37.520;15.106;2023-04-15T04:40:27;100942.78;;;13.16;44.67
54556;BME280;57291;37.520;15.106;2023-04-15T04:42:54;100949.88;;;13.17;44.50
54556;BME280;57291;37.520;15.106;2023-04-15T04:45:21;100949.09;;;13.17;44.54
54556;BME280;57291;37.520;15.106;2023-04-15T04:47:49;100946.84;;;13.19;44.49
54556;BME280;57291;37.520;15.106;2023-04-15T04:50:16;100940.56;;;13.18;44.48
54556;BME280;57291;37.520;15.106;2023-04-15T04:52:43;100938.56;;;13.24;44.60
54556;BME280;57291;37.520;15.106;2023-04-15T04:55:11;100941.38;;;13.32;44.34
54556;BME280;57291;37.520;15.106;2023-04-15T04:57:38;100937.13;;;13.40;44.27
54556;BME280;57291;37.520;15.106;2023-04-15T05:00:06;100953.25;;;13.50;44.18
54556;BME280;57291;37.520;15.106;2023-04-15T05:02:34;100950.34;;;13.69;44.16
54556;BME280;57291;37.520;15.106;2023-04-15T05:05:02;100956.53;;;14.06;43.98
54556;BME280;57291;37.520;15.106;2023-04-15T05:07:30;100954.00;;;15.07;42.84
54556;BME280;57291;37.520;15.106;2023-04-15T05:09:57;100955.94;;;16.02;40.99
54556;BME280;57291;37.520;15.106;2023-04-15T05:12:24;100951.97;;;17.05;39.58
54556;BME280;57291;37.520;15.106;2023-04-15T05:14:52;100956.19;;;17.99;37.92
54556;BME280;57291;37.520;15.106;2023-04-15T05:17:19;100956.41;;;18.88;36.53
54556;BME280;57291;37.520;15.106;2023-04-15T05:19:46;100967.22;;;18.81;35.29
54556;BME280;57291;37.520;15.106;2023-04-15T05:22:13;100957.75;;;18.45;36.36
54556;BME280;57291;37.520;15.106;2023-04-15T05:24:41;100965.72;;;18.01;37.72
54556;BME280;57291;37.520;15.106;2023-04-15T05:27:08;100964.34;;;17.74;37.99
54556;BME280;57291;37.520;15.106;2023-04-15T05:29:37;100969.47;;;17.64;37.51
54556;BME280;57291;37.520;15.106;2023-04-15T05:32:04;100967.16;;;17.24;38.23
54556;BME280;57291;37.520;15.106;2023-04-15T05:34:32;100970.94;;;16.90;38.75
54556;BME280;57291;37.520;15.106;2023-04-15T05:36:59;100962.25;;;16.49;39.34
54556;BME280;57291;37.520;15.106;2023-04-15T05:39:26;100969.78;;;16.14;40.09
54556;BME280;57291;37.520;15.106;2023-04-15T05:41:53;100974.03;;;15.94;40.81
54556;BME280;57291;37.520;15.106;2023-04-15T05:44:20;100967.94;;;15.71;41.09
54556;BME280;57291;37.520;15.106;2023-04-15T05:46:47;100971.63;;;15.58;41.88
54556;BME280;57291;37.520;15.106;2023-04-15T05:49:14;100975.00;;;15.46;42.22
54556;BME280;57291;37.520;15.106;2023-04-15T05:51:42;100973.72;;;15.43;42.59
54556;BME280;57291;37.520;15.106;2023-04-15T05:54:09;100974.03;;;15.51;42.66
54556;BME280;57291;37.520;15.106;2023-04-15T05:56:36;100972.72;;;15.65;42.34
54556;BME280;57291;37.520;15.106;2023-04-15T05:59:05;100980.19;;;15.74;42.09
54556;BME280;57291;37.520;15.106;2023-04-15T06:01:32;100981.78;;;15.75;42.06
54556;BME280;57291;37.520;15.106;2023-04-15T06:04:00;100985.97;;;15.81;41.97
54556;BME280;57291;37.520;15.106;2023-04-15T06:06:27;100978.91;;;15.80;41.84
54556;BME280;57291;37.520;15.106;2023-04-15T06:08:54;100989.19;;;15.91;41.59
54556;BME280;57291;37.520;15.106;2023-04-15T06:11:21;100976.91;;;15.98;41.44
54556;BME280;57291;37.520;15.106;2023-04-15T06:13:49;100979.16;;;16.13;41.50
54556;BME280;57291;37.520;15.106;2023-04-15T06:16:16;100967.84;;;16.23;41.29
54556;BME280;57291;37.520;15.106;2023-04-15T06:18:43;100973.41;;;16.44;41.16
54556;BME280;57291;37.520;15.106;2023-04-15T06:21:10;100968.50;;;16.58;40.92
54556;BME280;57291;37.520;15.106;2023-04-15T06:23:37;100967.13;;;16.82;40.77
54556;BME280;57291;37.520;15.106;2023-04-15T06:26:07;100963.00;;;16.97;40.54
54556;BME280;57291;37.520;15.106;2023-04-15T06:28:34;100965.03;;;17.08;40.16
54556;BME280;57291;37.520;15.106;2023-04-15T06:31:02;100956.59;;;17.14;40.09
54556;BME280;57291;37.520;15.106;2023-04-15T06:33:29;100951.22;;;17.17;40.31
54556;BME280;57291;37.520;15.106;2023-04-15T06:35:56;100957.38;;;17.56;39.35
54556;BME280;57291;37.520;15.106;2023-04-15T06:38:23;100953.56;;;17.90;38.61
54556;BME280;57291;37.520;15.106;2023-04-15T06:40:50;100950.50;;;18.16;38.26
54556;BME280;57291;37.520;15.106;2023-04-15T06:43:18;100949.53;;;18.58;37.52
54556;BME280;57291;37.520;15.106;2023-04-15T06:45:45;100950.91;;;19.01;37.62
54556;BME280;57291;37.520;15.106;2023-04-15T06:48:13;100949.00;;;19.57;35.43
54556;BME280;57291;37.520;15.106;2023-04-15T06:50:40;100956.34;;;19.94;35.30
54556;BME280;57291;37.520;15.106;2023-04-15T06:53:07;100947.63;;;20.51;33.85
54556;BME280;57291;37.520;15.106;2023-04-15T06:55:34;100955.78;;;20.32;34.49
54556;BME280;57291;37.520;15.106;2023-04-15T06:58:01;100951.94;;;20.21;35.00
54556;BME280;57291;37.520;15.106;2023-04-15T07:00:28;100942.16;;;20.07;35.18
54556;BME280;57291;37.520;15.106;2023-04-15T07:02:56;100942.41;;;19.74;35.90
54556;BME280;57291;37.520;15.106;2023-04-15T07:05:23;100942.81;;;19.32;36.99
54556;BME280;57291;37.520;15.106;2023-04-15T07:07:51;100942.75;;;19.04;38.06
54556;BME280;57291;37.520;15.106;2023-04-15T07:10:18;100948.84;;;18.97;38.40
54556;BME280;57291;37.520;15.106;2023-04-15T07:12:47;100947.25;;;18.72;39.09
54556;BME280;57291;37.520;15.106;2023-04-15T07:15:14;100949.06;;;18.68;39.96
54556;BME280;57291;37.520;15.106;2023-04-15T07:17:41;100961.22;;;18.91;39.70
54556;BME280;57291;37.520;15.106;2023-04-15T07:20:11;100964.75;;;19.57;38.97
54556;BME280;57291;37.520;15.106;2023-04-15T07:22:39;100963.16;;;19.84;38.24
54556;BME280;57291;37.520;15.106;2023-04-15T07:25:07;100968.63;;;19.96;38.68
54556;BME280;57291;37.520;15.106;2023-04-15T07:27:34;100968.13;;;20.06;38.72
54556;BME280;57291;37.520;15.106;2023-04-15T07:30:02;100961.47;;;19.79;40.00
54556;BME280;57291;37.520;15.106;2023-04-15T07:32:29;100963.97;;;20.44;38.22
54556;BME280;57291;37.520;15.106;2023-04-15T07:34:56;100970.00;;;21.33;37.02
54556;BME280;57291;37.520;15.106;2023-04-15T07:37:24;100971.34;;;22.00;35.93
54556;BME280;57291;37.520;15.106;2023-04-15T07:39:51;100967.47;;;21.63;36.61
54556;BME280;57291;37.520;15.106;2023-04-15T07:42:18;100970.44;;;21.35;37.18
54556;BME280;57291;37.520;15.106;2023-04-15T07:44:46;100971.97;;;20.97;37.78
54556;BME280;57291;37.520;15.106;2023-04-15T07:47:13;100979.00;;;21.29;37.91
54556;BME280;57291;37.520;15.106;2023-04-15T07:49:41;100966.81;;;21.69;37.06
54556;BME280;57291;37.520;15.106;2023-04-15T07:52:09;100971.97;;;21.71;37.11
54556;BME280;57291;37.520;15.106;2023-04-15T07:54:36;100975.44;;;22.07;37.02
54556;BME280;57291;37.520;15.106;2023-04-15T07:57:04;100969.03;;;22.22;36.04
54556;BME280;57291;37.520;15.106;2023-04-15T07:59:31;100969.75;;;22.91;36.01
54556;BME280;57291;37.520;15.106;2023-04-15T08:01:59;100976.75;;;23.69;34.62
54556;BME280;57291;37.520;15.106;2023-04-15T08:04:26;100976.31;;;24.00;34.15
54556;BME280;57291;37.520;15.106;2023-04-15T08:06:54;100979.97;;;23.71;35.03
54556;BME280;57291;37.520;15.106;2023-04-15T08:09:21;100976.78;;;23.42;35.45
54556;BME280;57291;37.520;15.106;2023-04-15T08:11:48;100974.22;;;23.26;36.22
54556;BME280;57291;37.520;15.106;2023-04-15T08:14:16;100969.22;;;23.39;36.37
54556;BME280;57291;37.520;15.106;2023-04-15T08:16:44;100976.97;;;22.96;36.57
54556;BME280;57291;37.520;15.106;2023-04-15T08:19:11;100964.63;;;21.78;38.46
54556;BME280;57291;37.520;15.106;2023-04-15T08:21:38;100980.19;;;20.61;40.77
54556;BME280;57291;37.520;15.106;2023-04-15T08:24:06;100978.50;;;19.97;41.82
54556;BME280;57291;37.520;15.106;2023-04-15T08:26:33;100980.59;;;19.72;42.99
54556;BME280;57291;37.520;15.106;2023-04-15T08:29:01;100986.25;;;19.51;43.17
54556;BME280;57291;37.520;15.106;2023-04-15T08:31:28;100985.84;;;19.37;43.61
54556;BME280;57291;37.520;15.106;2023-04-15T08:33:56;100987.09;;;19.39;44.03
54556;BME280;57291;37.520;15.106;2023-04-15T08:36:23;100988.97;;;19.76;43.34
54556;BME280;57291;37.520;15.106;2023-04-15T08:38:51;100990.88;;;19.87;42.49
54556;BME280;57291;37.520;15.106;2023-04-15T08:41:23;100991.69;;;20.04;42.53
54556;BME280;57291;37.520;15.106;2023-04-15T08:43:56;100988.13;;;20.03;42.26
54556;BME280;57291;37.520;15.106;2023-04-15T08:46:23;100984.97;;;20.33;41.79
54556;BME280;57291;37.520;15.106;2023-04-15T08:48:51;100990.59;;;20.21;42.17
54556;BME280;57291;37.520;15.106;2023-04-15T08:51:21;100988.22;;;20.07;42.53
54556;BME280;57291;37.520;15.106;2023-04-15T08:53:50;100982.22;;;19.89;43.07
54556;BME280;57291;37.520;15.106;2023-04-15T08:56:18;100983.16;;;19.65;43.75
54556;BME280;57291;37.520;15.106;2023-04-15T08:58:50;100987.03;;;19.64;43.79
54556;BME280;57291;37.520;15.106;2023-04-15T09:01:18;100987.13;;;19.67;43.57
54556;BME280;57291;37.520;15.106;2023-04-15T09:03:48;100981.94;;;19.78;43.85
54556;BME280;57291;37.520;15.106;2023-04-15T09:06:16;100980.97;;;19.58;43.66
54556;BME280;57291;37.520;15.106;2023-04-15T09:08:44;100979.78;;;19.72;43.82
54556;BME280;57291;37.520;15.106;2023-04-15T09:11:11;100970.50;;;19.64;43.61
54556;BME280;57291;37.520;15.106;2023-04-15T09:13:39;100971.16;;;19.61;44.43
54556;BME280;57291;37.520;15.106;2023-04-15T09:16:06;100970.44;;;19.76;44.08
54556;BME280;57291;37.520;15.106;2023-04-15T09:18:38;100965.78;;;19.92;43.50
54556;BME280;57291;37.520;15.106;2023-04-15T09:21:12;100961.56;;;20.11;43.40
54556;BME280;57291;37.520;15.106;2023-04-15T09:23:52;100961.47;;;20.07;43.34
54556;BME280;57291;37.520;15.106;2023-04-15T09:26:29;100957.75;;;20.47;42.82
54556;BME280;57291;37.520;15.106;2023-04-15T09:29:10;100950.75;;;21.01;41.72
54556;BME280;57291;37.520;15.106;2023-04-15T09:31:41;100949.53;;;21.18;41.29
54556;BME280;57291;37.520;15.106;2023-04-15T09:34:10;100947.19;;;21.00;41.39
54556;BME280;57291;37.520;15.106;2023-04-15T09:36:52;100932.78;;;21.11;41.38
54556;BME280;57291;37.520;15.106;2023-04-15T09:39:20;100943.91;;;21.14;41.25
54556;BME280;57291;37.520;15.106;2023-04-15T09:42:05;100931.13;;;21.25;41.04
54556;BME280;57291;37.520;15.106;2023-04-15T09:44:33;100934.50;;;21.35;41.19
54556;BME280;57291;37.520;15.106;2023-04-15T09:47:00;100938.19;;;21.62;40.41
54556;BME280;57291;37.520;15.106;2023-04-15T09:49:28;100928.97;;;21.73;39.99
54556;BME280;57291;37.520;15.106;2023-04-15T09:52:01;100932.72;;;22.08;39.41
54556;BME280;57291;37.520;15.106;2023-04-15T09:54:34;100938.75;;;22.33;38.96
54556;BME280;57291;37.520;15.106;2023-04-15T09:57:06;100928.84;;;22.32;38.50
54556;BME280;57291;37.520;15.106;2023-04-15T09:59:34;100932.75;;;22.54;38.53
54556;BME280;57291;37.520;15.106;2023-04-15T10:02:05;100930.72;;;22.51;37.98
54556;BME280;57291;37.520;15.106;2023-04-15T10:04:35;100936.53;;;22.42;37.89
54556;BME280;57291;37.520;15.106;2023-04-15T10:07:07;100932.50;;;21.93;38.90
54556;BME280;57291;37.520;15.106;2023-04-15T10:09:37;100931.72;;;21.73;39.32
54556;BME280;57291;37.520;15.106;2023-04-15T10:12:04;100932.53;;;21.54;40.40
54556;BME280;57291;37.520;15.106;2023-04-15T10:14:33;100934.72;;;21.26;40.68
54556;BME280;57291;37.520;15.106;2023-04-15T10:17:03;100927.06;;;21.19;41.17
54556;BME280;57291;37.520;15.106;2023-04-15T10:19:32;100930.31;;;21.25;40.77
54556;BME280;57291;37.520;15.106;2023-04-15T10:22:00;100933.06;;;21.05;40.48
54556;BME280;57291;37.520;15.106;2023-04-15T10:24:32;100910.84;;;21.18;41.00
54556;BME280;57291;37.520;15.106;2023-04-15T10:27:02;100918.41;;;21.21;39.24
54556;BME280;57291;37.520;15.106;2023-04-15T10:29:30;100913.66;;;21.21;39.42
54556;BME280;57291;37.520;15.106;2023-04-15T10:32:00;100908.53;;;21.20;39.24
54556;BME280;57291;37.520;15.106;2023-04-15T10:34:29;100896.94;;;21.34;39.47
54556;BME280;57291;37.520;15.106;2023-04-15T10:37:01;100906.78;;;20.96;39.75
54556;BME280;57291;37.520;15.106;2023-04-15T10:42:07;100894.59;;;20.61;40.89
54556;BME280;57291;37.520;15.106;2023-04-15T10:44:38;100891.06;;;20.96;39.95
54556;BME280;57291;37.520;15.106;2023-04-15T10:47:15;100886.00;;;21.02;40.08
54556;BME280;57291;37.520;15.106;2023-04-15T10:49:55;100878.03;;;20.97;40.78
54556;BME280;57291;37.520;15.106;2023-04-15T10:52:25;100883.56;;;21.16;40.55
54556;BME280;57291;37.520;15.106;2023-04-15T10:55:15;100871.06;;;21.22;40.34
54556;BME280;57291;37.520;15.106;2023-04-15T10:57:45;100874.09;;;21.17;40.50
54556;BME280;57291;37.520;15.106;2023-04-15T11:00:13;100876.13;;;21.01;40.51
54556;BME280;57291;37.520;15.106;2023-04-15T11:03:05;100868.41;;;20.39;43.24
54556;BME280;57291;37.520;15.106;2023-04-15T11:08:09;100866.25;;;19.26;52.48
54556;BME280;57291;37.520;15.106;2023-04-15T11:15:39;100863.53;;;18.36;54.56
54556;BME280;57291;37.520;15.106;2023-04-15T11:20:40;100854.03;;;17.76;58.40
54556;BME280;57291;37.520;15.106;2023-04-15T11:23:08;100863.16;;;17.55;59.78
54556;BME280;57291;37.520;15.106;2023-04-15T11:25:41;100859.38;;;17.48;59.38
54556;BME280;57291;37.520;15.106;2023-04-15T11:28:11;100847.34;;;17.52;61.10
54556;BME280;57291;37.520;15.106;2023-04-15T11:30:39;100873.66;;;17.53;58.52
54556;BME280;57291;37.520;15.106;2023-04-15T11:33:08;100873.47;;;17.25;57.30
54556;BME280;57291;37.520;15.106;2023-04-15T11:35:36;100864.16;;;16.97;59.22
54556;BME280;57291;37.520;15.106;2023-04-15T11:38:05;100852.41;;;16.67;58.59
54556;BME280;57291;37.520;15.106;2023-04-15T11:40:34;100852.22;;;16.72;57.68
54556;BME280;57291;37.520;15.106;2023-04-15T11:45:36;100834.03;;;17.09;55.93
54556;BME280;57291;37.520;15.106;2023-04-15T11:48:08;100831.25;;;17.30;54.91
54556;BME280;57291;37.520;15.106;2023-04-15T11:50:37;100836.00;;;17.42;54.31
54556;BME280;57291;37.520;15.106;2023-04-15T11:53:08;100836.34;;;17.52;55.30
54556;BME280;57291;37.520;15.106;2023-04-15T11:55:48;100832.44;;;17.53;54.21
54556;BME280;57291;37.520;15.106;2023-04-15T11:58:24;100833.41;;;17.57;54.29
54556;BME280;57291;37.520;15.106;2023-04-15T12:00:57;100826.06;;;17.62;55.08
54556;BME280;57291;37.520;15.106;2023-04-15T12:03:25;100820.81;;;17.69;54.22
54556;BME280;57291;37.520;15.106;2023-04-15T12:14:26;100808.78;;;18.84;51.47
54556;BME280;57291;37.520;15.106;2023-04-15T12:16:57;100799.28;;;19.09;50.14
54556;BME280;57291;37.520;15.106;2023-04-15T12:19:29;100805.03;;;19.32;50.72
54556;BME280;57291;37.520;15.106;2023-04-15T12:22:02;100775.47;;;19.17;50.25
54556;BME280;57291;37.520;15.106;2023-04-15T12:24:31;100787.94;;;18.98;51.53
54556;BME280;57291;37.520;15.106;2023-04-15T12:29:31;100773.28;;;18.94;51.96
54556;BME280;57291;37.520;15.106;2023-04-15T12:32:19;100764.41;;;18.61;51.82
54556;BME280;57291;37.520;15.106;2023-04-15T12:34:52;100764.66;;;18.56;51.99
54556;BME280;57291;37.520;15.106;2023-04-15T12:37:20;100766.88;;;18.50;52.30
54556;BME280;57291;37.520;15.106;2023-04-15T12:39:49;100773.97;;;18.39;52.34
54556;BME280;57291;37.520;15.106;2023-04-15T12:42:18;100767.25;;;18.24;52.28
54556;BME280;57291;37.520;15.106;2023-04-15T12:44:45;100759.13;;;18.03;53.15
54556;BME280;57291;37.520;15.106;2023-04-15T12:47:13;100757.53;;;17.90;54.81
54556;BME280;57291;37.520;15.106;2023-04-15T12:49:41;100751.53;;;17.75;55.43
54556;BME280;57291;37.520;15.106;2023-04-15T12:52:08;100750.19;;;17.81;55.69
54556;BME280;57291;37.520;15.106;2023-04-15T12:54:36;100737.94;;;17.91;55.99
54556;BME280;57291;37.520;15.106;2023-04-15T12:57:04;100735.09;;;17.88;55.01
54556;BME280;57291;37.520;15.106;2023-04-15T12:59:34;100733.59;;;17.90;53.51
54556;BME280;57291;37.520;15.106;2023-04-15T13:02:02;100728.88;;;18.03;52.71
54556;BME280;57291;37.520;15.106;2023-04-15T13:04:31;100733.44;;;18.23;51.74
54556;BME280;57291;37.520;15.106;2023-04-15T13:06:58;100719.63;;;18.36;51.38
54556;BME280;57291;37.520;15.106;2023-04-15T13:09:26;100727.00;;;18.72;49.61
54556;BME280;57291;37.520;15.106;2023-04-15T13:11:54;100718.31;;;19.14;48.32
54556;BME280;57291;37.520;15.106;2023-04-15T13:14:24;100714.19;;;19.52;47.22